Time;durP1;ratioP1;P1;durP2;ratioP2;P2;SDS_P1;SDS_P2;PMS_P1;PMS_P2;Temp;Humidity;BMP_temperature;BMP_pressure;BME280_temperature;BME280_humidity;BME280_pressure;Samples;Min_cycle;Max_cycle;Signal;HPM_P1;HPM_P2
2021/11/23 00:00:15;;;;;;;32.05;19.88;;;;;;;;;;5095808;28;20031;-65
2021/11/23 00:02:42;;;;;;;29.77;19.13;;;;;;;;;;5095831;28;20107;-66
2021/11/23 00:05:09;;;;;;;35.30;20.40;;;;;;;;;;5095359;28;20078;-66
2021/11/23 00:07:35;;;;;;;38.53;22.27;;;;;;;;;;5096328;28;20468;-66
2021/11/23 00:10:02;;;;;;;34.63;22.23;;;;;;;;;;5094046;28;20115;-65
2021/11/23 00:12:28;;;;;;;37.00;21.95;;;;;;;;;;5095841;28;20024;-66
2021/11/23 00:14:54;;;;;;;37.40;22.40;;;;;;;;;;5095843;28;20043;-66
2021/11/23 00:17:20;;;;;;;31.05;19.25;;;;;;;;;;5095156;28;20094;-67
2021/11/23 00:19:46;;;;;;;32.35;19.17;;;;;;;;;;5095999;28;20176;-66
2021/11/23 00:22:13;;;;;;;32.70;19.95;;;;;;;;;;5094240;28;20024;-66
2021/11/23 00:24:39;;;;;;;32.80;19.35;;;;;;;;;;5094999;28;20491;-66
2021/11/23 00:27:06;;;;;;;31.50;19.33;;;;;;;;;;5095433;28;20394;-66
2021/11/23 00:29:33;;;;;;;30.33;16.95;;;;;;;;;;5095321;28;20025;-65
2021/11/23 00:31:59;;;;;;;31.90;20.17;;;;;;;;;;5093867;28;20031;-65
2021/11/23 00:34:26;;;;;;;26.67;18.50;;;;;;;;;;5095252;28;20384;-66
2021/11/23 00:36:52;;;;;;;28.80;18.60;;;;;;;;;;5095339;28;20043;-66
2021/11/23 00:39:19;;;;;;;28.20;16.92;;;;;;;;;;5094885;28;20012;-65
2021/11/23 00:41:47;;;;;;;29.65;17.80;;;;;;;;;;5095056;28;20407;-66
2021/11/23 00:44:15;;;;;;;27.45;16.75;;;;;;;;;;5094994;28;20020;-65
2021/11/23 00:46:42;;;;;;;27.52;18.17;;;;;;;;;;5094573;28;20107;-66
2021/11/23 00:49:08;;;;;;;25.13;17.00;;;;;;;;;;5095087;28;20023;-65
2021/11/23 00:51:34;;;;;;;30.85;17.35;;;;;;;;;;5094974;28;20094;-66
2021/11/23 00:54:00;;;;;;;26.42;17.65;;;;;;;;;;5093270;28;20502;-66
2021/11/23 00:56:27;;;;;;;26.90;16.77;;;;;;;;;;5094788;28;20447;-66
2021/11/23 00:58:53;;;;;;;30.52;17.75;;;;;;;;;;5094709;28;20530;-66
2021/11/23 01:01:19;;;;;;;29.98;18.30;;;;;;;;;;5094402;28;20099;-66
2021/11/23 01:03:45;;;;;;;25.45;17.00;;;;;;;;;;5094683;28;20020;-67
2021/11/23 01:06:12;;;;;;;34.42;18.48;;;;;;;;;;5094476;28;20036;-67
2021/11/23 01:08:39;;;;;;;28.05;17.05;;;;;;;;;;5094209;28;20426;-66
2021/11/23 01:11:09;;;;;;;28.40;19.00;;;;;;;;;;5094615;28;20024;-66
2021/11/23 01:13:35;;;;;;;28.80;17.92;;;;;;;;;;5094140;28;20020;-65
2021/11/23 01:16:01;;;;;;;32.40;21.02;;;;;;;;;;5094425;28;20039;-65
2021/11/23 01:18:27;;;;;;;31.85;19.10;;;;;;;;;;5094491;28;20460;-66
2021/11/23 01:20:54;;;;;;;27.95;16.60;;;;;;;;;;5094049;28;20502;-65
2021/11/23 01:23:21;;;;;;;20.80;14.38;;;;;;;;;;5094330;28;20023;-66
2021/11/23 01:25:48;;;;;;;24.90;15.95;;;;;;;;;;5092728;28;20050;-66
2021/11/23 01:28:14;;;;;;;25.58;17.25;;;;;;;;;;5093928;28;20058;-66
2021/11/23 01:30:41;;;;;;;25.73;17.05;;;;;;;;;;5092963;28;20406;-66
2021/11/23 01:33:08;;;;;;;31.33;18.02;;;;;;;;;;5094151;28;20039;-66
2021/11/23 01:35:34;;;;;;;30.52;19.63;;;;;;;;;;5093703;28;20024;-66
2021/11/23 01:38:00;;;;;;;30.67;19.15;;;;;;;;;;5094055;28;20049;-66
2021/11/23 01:40:26;;;;;;;30.67;18.65;;;;;;;;;;5094055;28;20028;-66
2021/11/23 01:42:52;;;;;;;33.08;20.70;;;;;;;;;;5092337;28;20484;-66
2021/11/23 01:45:19;;;;;;;36.13;23.30;;;;;;;;;;5093895;28;20047;-66
2021/11/23 01:47:45;;;;;;;35.15;22.20;;;;;;;;;;5094101;28;20020;-66
2021/11/23 01:50:12;;;;;;;33.35;19.33;;;;;;;;;;5093519;28;20472;-66
2021/11/23 01:52:39;;;;;;;36.40;22.95;;;;;;;;;;5093960;28;20069;-66
2021/11/23 01:55:08;;;;;;;33.40;21.63;;;;;;;;;;5093834;28;20017;-67
2021/11/23 01:57:35;;;;;;;32.30;20.17;;;;;;;;;;5093297;28;20024;-67
2021/11/23 02:00:01;;;;;;;29.85;19.90;;;;;;;;;;5092464;28;20471;-66
2021/11/23 02:02:27;;;;;;;36.22;20.90;;;;;;;;;;5092016;28;20055;-66
2021/11/23 02:04:54;;;;;;;31.98;20.35;;;;;;;;;;5094106;28;20034;-66
2021/11/23 02:07:20;;;;;;;34.70;21.27;;;;;;;;;;5093698;28;20031;-67
2021/11/23 02:09:46;;;;;;;33.30;20.63;;;;;;;;;;5093364;28;20431;-66
2021/11/23 02:12:13;;;;;;;32.47;20.95;;;;;;;;;;5093843;28;20095;-66
2021/11/23 02:14:39;;;;;;;31.08;20.10;;;;;;;;;;5093570;28;20104;-66
2021/11/23 02:17:06;;;;;;;36.38;22.20;;;;;;;;;;5093197;28;20024;-66
2021/11/23 02:19:32;;;;;;;34.53;21.40;;;;;;;;;;5092216;28;20015;-66
2021/11/23 02:21:58;;;;;;;31.85;20.42;;;;;;;;;;5093376;28;20036;-66
2021/11/23 02:24:24;;;;;;;36.70;21.33;;;;;;;;;;5092591;28;20039;-66
2021/11/23 02:26:50;;;;;;;31.58;19.10;;;;;;;;;;5092126;28;20031;-66
2021/11/23 02:29:17;;;;;;;32.25;19.77;;;;;;;;;;5093437;28;20024;-66
2021/11/23 02:31:43;;;;;;;28.33;17.45;;;;;;;;;;5092908;28;20028;-66
2021/11/23 02:34:11;;;;;;;31.90;19.35;;;;;;;;;;5092087;28;20098;-66
2021/11/23 02:36:38;;;;;;;36.17;20.73;;;;;;;;;;5093406;28;20020;-67
2021/11/23 02:39:05;;;;;;;33.00;20.45;;;;;;;;;;5092882;28;20422;-63
2021/11/23 02:41:32;;;;;;;31.08;20.58;;;;;;;;;;5093254;28;20016;-67
2021/11/23 02:43:58;;;;;;;29.27;19.88;;;;;;;;;;5093234;28;20032;-66
2021/11/23 02:46:24;;;;;;;32.00;19.92;;;;;;;;;;5092803;28;20028;-66
2021/11/23 02:48:51;;;;;;;27.55;18.55;;;;;;;;;;5093162;28;20081;-66
2021/11/23 02:51:17;;;;;;;30.98;19.17;;;;;;;;;;5091932;28;20407;-66
2021/11/23 02:53:45;;;;;;;30.08;19.58;;;;;;;;;;5092864;28;20070;-66
2021/11/23 02:56:11;;;;;;;28.10;19.38;;;;;;;;;;5093182;28;20051;-66
2021/11/23 02:58:38;;;;;;;31.67;20.27;;;;;;;;;;5092860;28;20027;-66
2021/11/23 03:01:05;;;;;;;31.02;19.75;;;;;;;;;;5093049;28;20028;-66
2021/11/23 03:03:32;;;;;;;30.73;19.25;;;;;;;;;;5093124;28;20016;-67
2021/11/23 03:05:58;;;;;;;30.90;19.40;;;;;;;;;;5092581;28;20040;-66
2021/11/23 03:08:25;;;;;;;31.83;20.00;;;;;;;;;;5093021;28;20089;-66
2021/11/23 03:10:51;;;;;;;30.63;18.48;;;;;;;;;;5092987;28;20606;-66
2021/11/23 03:13:18;;;;;;;35.00;22.00;;;;;;;;;;5092608;28;20028;-66
2021/11/23 03:15:44;;;;;;;31.13;20.08;;;;;;;;;;5092949;28;20028;-66
2021/11/23 03:18:10;;;;;;;34.28;19.52;;;;;;;;;;5093100;28;20023;-66
2021/11/23 03:20:37;;;;;;;29.80;19.17;;;;;;;;;;5092550;28;20070;-66
2021/11/23 03:23:04;;;;;;;26.92;18.67;;;;;;;;;;5092919;28;20050;-66
2021/11/23 03:25:31;;;;;;;26.30;16.33;;;;;;;;;;5092804;28;20044;-67
2021/11/23 03:27:57;;;;;;;31.27;18.98;;;;;;;;;;5092454;28;20032;-66
2021/11/23 03:30:28;;;;;;;36.08;23.27;;;;;;;;;;5092800;28;20051;-66
2021/11/23 03:32:54;;;;;;;35.75;24.35;;;;;;;;;;5093067;28;20107;-66
2021/11/23 03:35:21;;;;;;;33.00;22.98;;;;;;;;;;5096343;28;20073;-66
2021/11/23 03:37:48;;;;;;;33.30;24.95;;;;;;;;;;5096657;28;20465;-66
2021/11/23 03:40:14;;;;;;;41.85;25.02;;;;;;;;;;5096384;28;20174;-66
2021/11/23 03:42:41;;;;;;;37.38;23.33;;;;;;;;;;5095988;28;20024;-66
2021/11/23 03:45:07;;;;;;;35.38;21.05;;;;;;;;;;5096180;28;20051;-66
2021/11/23 03:47:35;;;;;;;34.25;22.15;;;;;;;;;;5096186;28;20035;-66
2021/11/23 03:50:02;;;;;;;32.03;20.00;;;;;;;;;;5095719;28;20033;-66
2021/11/23 03:52:28;;;;;;;31.65;21.23;;;;;;;;;;5094780;28;20106;-67
2021/11/23 03:54:54;;;;;;;36.58;23.42;;;;;;;;;;5095661;28;20099;-66
2021/11/23 03:57:21;;;;;;;35.50;22.08;;;;;;;;;;5095941;28;20495;-66
2021/11/23 03:59:48;;;;;;;40.30;23.48;;;;;;;;;;5096038;28;20032;-66
2021/11/23 04:02:15;;;;;;;34.40;21.73;;;;;;;;;;5095854;28;20658;-66
2021/11/23 04:04:42;;;;;;;32.13;19.00;;;;;;;;;;5095848;28;20030;-66
2021/11/23 04:07:08;;;;;;;31.20;20.55;;;;;;;;;;5095960;28;20058;-64
2021/11/23 04:09:34;;;;;;;36.35;24.15;;;;;;;;;;5077422;28;20383;-64
2021/11/23 04:12:00;;;;;;;36.65;22.27;;;;;;;;;;5095850;28;20093;-64
2021/11/23 04:14:26;;;;;;;32.25;20.15;;;;;;;;;;5095804;28;20047;-66
2021/11/23 04:16:53;;;;;;;34.35;21.73;;;;;;;;;;5095359;28;20046;-66
2021/11/23 04:19:19;;;;;;;38.92;22.60;;;;;;;;;;5095652;28;20028;-66
2021/11/23 04:21:45;;;;;;;33.30;21.80;;;;;;;;;;5095563;28;20016;-66
2021/11/23 04:24:11;;;;;;;30.55;20.92;;;;;;;;;;5094862;28;20433;-65
2021/11/23 04:26:37;;;;;;;31.63;21.55;;;;;;;;;;5095627;28;20044;-66
2021/11/23 04:29:04;;;;;;;32.05;20.15;;;;;;;;;;5095378;28;20022;-66
2021/11/23 04:31:30;;;;;;;29.80;18.27;;;;;;;;;;5094968;28;20431;-66
2021/11/23 04:33:56;;;;;;;33.72;21.90;;;;;;;;;;5095249;28;20024;-66
2021/11/23 04:36:22;;;;;;;33.75;23.17;;;;;;;;;;5093954;28;20028;-66
2021/11/23 04:38:49;;;;;;;34.53;21.85;;;;;;;;;;5095022;28;20440;-66
2021/11/23 04:41:15;;;;;;;31.05;19.40;;;;;;;;;;5095098;28;20377;-66
2021/11/23 04:43:41;;;;;;;33.45;21.40;;;;;;;;;;5095172;28;20020;-66
2021/11/23 04:46:07;;;;;;;31.90;21.00;;;;;;;;;;5094816;28;20039;-66
2021/11/23 04:48:33;;;;;;;31.92;20.20;;;;;;;;;;5094988;28;20024;-66
2021/11/23 04:51:00;;;;;;;29.65;21.08;;;;;;;;;;5093774;28;20489;-66
2021/11/23 04:53:26;;;;;;;33.47;20.92;;;;;;;;;;5094560;28;20030;-66
2021/11/23 04:55:52;;;;;;;32.55;19.45;;;;;;;;;;5094954;28;20378;-66
2021/11/23 04:58:19;;;;;;;33.22;20.85;;;;;;;;;;5094513;28;20020;-66
2021/11/23 05:00:45;;;;;;;27.17;19.33;;;;;;;;;;5094916;28;20495;-66
2021/11/23 05:03:12;;;;;;;30.05;20.00;;;;;;;;;;5094837;28;20065;-66
2021/11/23 05:05:38;;;;;;;29.58;19.17;;;;;;;;;;5094201;28;20063;-66
2021/11/23 05:08:04;;;;;;;38.17;24.25;;;;;;;;;;5093655;28;20048;-66
2021/11/23 05:10:30;;;;;;;37.50;24.52;;;;;;;;;;5094585;28;20028;-66
2021/11/23 05:12:56;;;;;;;37.28;22.77;;;;;;;;;;5094180;28;20504;-66
2021/11/23 05:15:23;;;;;;;37.92;23.35;;;;;;;;;;5094528;28;20069;-67
2021/11/23 05:17:49;;;;;;;33.55;21.80;;;;;;;;;;5094462;28;20049;-66
2021/11/23 05:20:15;;;;;;;42.10;25.08;;;;;;;;;;5094027;28;20032;-67
2021/11/23 05:22:41;;;;;;;34.70;23.13;;;;;;;;;;5094627;28;20142;-66
2021/11/23 05:25:08;;;;;;;76.78;48.38;;;;;;;;;;5092776;28;20044;-65
2021/11/23 05:27:34;;;;;;;112.55;66.22;;;;;;;;;;5093978;28;20055;-66
2021/11/23 05:30:02;;;;;;;80.53;45.67;;;;;;;;;;5094214;28;20503;-66
2021/11/23 05:32:28;;;;;;;60.63;33.17;;;;;;;;;;5094264;28;20484;-66
2021/11/23 05:34:54;;;;;;;55.35;33.30;;;;;;;;;;5093746;28;20024;-66
2021/11/23 05:37:21;;;;;;;47.85;29.05;;;;;;;;;;5094674;28;20407;-66
2021/11/23 05:39:47;;;;;;;42.28;25.90;;;;;;;;;;5093067;28;20376;-66
2021/11/23 05:42:13;;;;;;;50.33;30.20;;;;;;;;;;5093830;28;20052;-68
2021/11/23 05:44:39;;;;;;;43.35;28.30;;;;;;;;;;5094274;28;20024;-66
2021/11/23 05:47:06;;;;;;;52.45;32.85;;;;;;;;;;5094078;28;20024;-66
2021/11/23 05:49:32;;;;;;;49.72;30.75;;;;;;;;;;5093576;28;20134;-66
2021/11/23 05:51:59;;;;;;;42.88;27.50;;;;;;;;;;5094078;28;20028;-66
2021/11/23 05:54:26;;;;;;;49.78;28.80;;;;;;;;;;5093561;28;20028;-66
2021/11/23 05:56:52;;;;;;;42.83;26.52;;;;;;;;;;5093660;28;20046;-67
2021/11/23 05:59:18;;;;;;;34.13;22.77;;;;;;;;;;5094079;28;20482;-67
2021/11/23 06:01:45;;;;;;;35.67;22.73;;;;;;;;;;5093629;28;20021;-66
2021/11/23 06:04:12;;;;;;;37.35;22.08;;;;;;;;;;5092544;28;20024;-66
2021/11/23 06:06:38;;;;;;;38.38;24.00;;;;;;;;;;5094121;28;20034;-66
2021/11/23 06:09:06;;;;;;;44.67;27.67;;;;;;;;;;5093361;28;20109;-67
2021/11/23 06:11:32;;;;;;;47.33;28.38;;;;;;;;;;5104937;28;20027;-65
2021/11/23 06:13:58;;;;;;;44.63;28.02;;;;;;;;;;5092376;28;20480;-65
2021/11/23 06:16:24;;;;;;;50.47;27.52;;;;;;;;;;5091885;28;20509;-66
2021/11/23 06:18:51;;;;;;;54.45;32.47;;;;;;;;;;5093124;28;20468;-66
2021/11/23 06:21:19;;;;;;;49.33;30.65;;;;;;;;;;5093348;28;20031;-66
2021/11/23 06:23:45;;;;;;;52.13;31.15;;;;;;;;;;5090163;28;20362;-65
2021/11/23 06:26:12;;;;;;;51.78;29.33;;;;;;;;;;5081171;28;20053;-66
2021/11/23 06:28:38;;;;;;;50.88;27.63;;;;;;;;;;5072739;28;20021;-66
2021/11/23 06:31:04;;;;;;;48.72;30.88;;;;;;;;;;5072430;28;20017;-65
2021/11/23 06:33:30;;;;;;;57.67;33.58;;;;;;;;;;5072800;28;20047;-65
2021/11/23 06:35:57;;;;;;;55.05;31.30;;;;;;;;;;5072787;28;20028;-65
2021/11/23 06:38:23;;;;;;;54.42;31.58;;;;;;;;;;5072621;28;20032;-65
2021/11/23 06:40:49;;;;;;;54.85;29.38;;;;;;;;;;5073019;28;20028;-65
2021/11/23 06:43:15;;;;;;;57.15;32.65;;;;;;;;;;5072865;28;20122;-65
2021/11/23 06:45:42;;;;;;;50.33;29.90;;;;;;;;;;5072515;28;20029;-65
2021/11/23 06:48:09;;;;;;;65.40;33.40;;;;;;;;;;5073015;28;20047;-66
2021/11/23 06:50:35;;;;;;;50.53;31.98;;;;;;;;;;5072983;28;20078;-65
2021/11/23 06:53:03;;;;;;;58.90;34.35;;;;;;;;;;5072467;28;20020;-65
2021/11/23 06:55:29;;;;;;;59.80;33.13;;;;;;;;;;5071028;28;20024;-65
2021/11/23 06:57:55;;;;;;;67.88;36.40;;;;;;;;;;5101878;28;20415;-65
2021/11/23 07:00:22;;;;;;;71.18;37.90;;;;;;;;;;5092771;28;20027;-65
2021/11/23 07:02:48;;;;;;;68.63;36.53;;;;;;;;;;5092884;28;20016;-65
2021/11/23 07:05:14;;;;;;;65.20;37.45;;;;;;;;;;5086173;28;20028;-65
2021/11/23 07:07:41;;;;;;;69.57;40.47;;;;;;;;;;5088951;28;20027;-65
2021/11/23 07:10:08;;;;;;;64.47;38.10;;;;;;;;;;5093079;28;20085;-65
2021/11/23 07:12:34;;;;;;;70.53;39.33;;;;;;;;;;5087779;28;20472;-65
2021/11/23 07:15:01;;;;;;;61.90;38.35;;;;;;;;;;5102507;28;20067;-65
2021/11/23 07:17:27;;;;;;;64.50;38.15;;;;;;;;;;5105613;28;20023;-67
2021/11/23 07:19:53;;;;;;;59.15;37.28;;;;;;;;;;5105115;28;20023;-66
2021/11/23 07:22:20;;;;;;;92.68;47.22;;;;;;;;;;5095293;28;20051;-66
2021/11/23 07:24:46;;;;;;;78.43;45.40;;;;;;;;;;5094641;28;20377;-66
2021/11/23 07:27:12;;;;;;;69.18;42.95;;;;;;;;;;5095900;28;20484;-66
2021/11/23 07:29:38;;;;;;;66.32;41.35;;;;;;;;;;5096073;28;20028;-66
2021/11/23 07:32:05;;;;;;;63.95;38.28;;;;;;;;;;5094294;28;20028;-67
2021/11/23 07:34:31;;;;;;;64.15;37.63;;;;;;;;;;5094682;28;20028;-66
2021/11/23 07:36:57;;;;;;;64.00;38.55;;;;;;;;;;5093440;28;20372;-66
2021/11/23 07:39:26;;;;;;;65.65;38.28;;;;;;;;;;5095452;28;20035;-66
2021/11/23 07:41:52;;;;;;;60.08;37.78;;;;;;;;;;5091367;28;20102;-65
2021/11/23 07:44:18;;;;;;;53.05;35.03;;;;;;;;;;5105428;28;20024;-65
2021/11/23 07:46:44;;;;;;;52.00;32.90;;;;;;;;;;5115900;28;20089;-66
2021/11/23 07:49:11;;;;;;;47.72;31.92;;;;;;;;;;5115556;28;20065;-66
2021/11/23 07:51:37;;;;;;;48.90;31.10;;;;;;;;;;5116149;28;20032;-65
2021/11/23 07:54:04;;;;;;;49.03;32.80;;;;;;;;;;5115901;28;20051;-64
2021/11/23 07:56:30;;;;;;;57.20;33.88;;;;;;;;;;5116002;28;20019;-64
2021/11/23 07:58:56;;;;;;;44.53;29.80;;;;;;;;;;5115671;28;20497;-64
2021/11/23 08:01:22;;;;;;;40.22;26.13;;;;;;;;;;5103858;28;20036;-66
2021/11/23 08:03:49;;;;;;;44.88;28.55;;;;;;;;;;5087508;28;20055;-64
2021/11/23 08:06:15;;;;;;;36.90;25.88;;;;;;;;;;5088475;28;20047;-64
2021/11/23 08:08:42;;;;;;;42.35;27.27;;;;;;;;;;5073443;28;20024;-65
2021/11/23 08:11:08;;;;;;;40.55;27.40;;;;;;;;;;5074868;28;20032;-64
2021/11/23 08:13:34;;;;;;;34.90;24.20;;;;;;;;;;5075144;28;20025;-65
2021/11/23 08:16:03;;;;;;;31.80;22.05;;;;;;;;;;5073387;28;20024;-64
2021/11/23 08:18:30;;;;;;;26.85;18.33;;;;;;;;;;5073558;28;20023;-64
2021/11/23 08:20:58;;;;;;;20.73;14.93;;;;;;;;;;5087416;28;20099;-64
2021/11/23 08:23:24;;;;;;;20.85;14.13;;;;;;;;;;5095058;28;20066;-64
2021/11/23 08:27:37;;;;;;;16.00;11.05;;;;;;;;;;5050452;28;20452;-66
2021/11/23 08:31:26;;;;;;;16.70;11.18;;;;;;;;;;5108178;27;20397;-65
2021/11/23 08:33:52;;;;;;;16.25;10.88;;;;;;;;;;5109748;28;20066;-65
2021/11/23 08:36:18;;;;;;;15.68;11.05;;;;;;;;;;5110120;28;20092;-65
2021/11/23 08:38:45;;;;;;;13.65;9.13;;;;;;;;;;5110985;28;20032;-66
2021/11/23 08:41:11;;;;;;;19.17;11.95;;;;;;;;;;5110859;28;20055;-66
2021/11/23 08:43:39;;;;;;;16.23;11.35;;;;;;;;;;5109397;28;20041;-66
2021/11/23 08:47:54;;;;;;;13.63;8.60;;;;;;;;;;5110698;27;20444;-65
2021/11/23 08:50:20;;;;;;;14.98;10.02;;;;;;;;;;5109035;28;20050;-64
2021/11/23 08:52:49;;;;;;;15.02;9.60;;;;;;;;;;5109524;28;20044;-67
2021/11/23 09:00:42;;;;;;;16.77;9.88;;;;;;;;;;5128454;27;20359;-65
2021/11/23 09:03:09;;;;;;;19.80;10.93;;;;;;;;;;5090817;28;20085;-65
2021/11/23 09:05:36;;;;;;;17.95;12.90;;;;;;;;;;5108996;28;20026;-65
2021/11/23 09:09:28;;;;;;;17.58;10.50;;;;;;;;;;5110839;27;20388;-67
2021/11/23 09:15:11;;;;;;;18.08;10.82;;;;;;;;;;5110248;27;20460;-66
2021/11/23 09:17:37;;;;;;;17.75;10.10;;;;;;;;;;5110892;28;20024;-65
2021/11/23 09:20:47;;;;;;;14.93;9.40;;;;;;;;;;5090657;27;20527;-65
2021/11/23 09:23:14;;;;;;;17.55;9.75;;;;;;;;;;5089201;28;20039;-66
2021/11/23 09:25:40;;;;;;;13.30;7.38;;;;;;;;;;5071022;28;20058;-65
2021/11/23 09:28:08;;;;;;;13.80;8.75;;;;;;;;;;5069679;28;20160;-66
2021/11/23 09:31:46;;;;;;;11.68;7.13;;;;;;;;;;5121412;27;20404;-66
2021/11/23 09:35:15;;;;;;;10.82;7.55;;;;;;;;;;5141572;27;20403;-65
2021/11/23 09:37:43;;;;;;;11.63;9.00;;;;;;;;;;5131086;27;20031;-66
2021/11/23 09:40:10;;;;;;;13.20;8.82;;;;;;;;;;5129977;28;20390;-66
2021/11/23 09:42:36;;;;;;;13.73;9.57;;;;;;;;;;5120973;28;20019;-66
2021/11/23 09:45:04;;;;;;;14.77;8.55;;;;;;;;;;5110542;28;20028;-66
2021/11/23 09:47:30;;;;;;;12.80;9.32;;;;;;;;;;5110112;28;20032;-66
2021/11/23 09:50:00;;;;;;;14.18;9.55;;;;;;;;;;5109410;28;20051;-66
2021/11/23 09:52:26;;;;;;;13.68;7.72;;;;;;;;;;5109388;28;20479;-66
2021/11/23 09:54:52;;;;;;;10.45;7.78;;;;;;;;;;5110041;28;20063;-67
2021/11/23 09:57:18;;;;;;;13.13;8.05;;;;;;;;;;5110401;28;20164;-67
2021/11/23 09:59:45;;;;;;;17.25;11.52;;;;;;;;;;5110232;28;20369;-67
2021/11/23 10:04:09;;;;;;;18.92;10.13;;;;;;;;;;5109977;27;20306;-66
2021/11/23 10:06:35;;;;;;;19.33;11.15;;;;;;;;;;5088536;28;20063;-65
2021/11/23 10:09:01;;;;;;;13.63;8.98;;;;;;;;;;5089055;28;20021;-65
2021/11/23 10:11:29;;;;;;;14.52;9.05;;;;;;;;;;5090320;28;20051;-66
2021/11/23 10:13:58;;;;;;;19.58;11.48;;;;;;;;;;5076911;28;20024;-66
2021/11/23 10:17:25;;;;;;;16.17;10.07;;;;;;;;;;5110960;27;20453;-67
2021/11/23 10:19:51;;;;;;;17.08;10.27;;;;;;;;;;5107884;28;20073;-66
2021/11/23 10:22:31;;;;;;;18.35;11.43;;;;;;;;;;5110481;28;20074;-66
2021/11/23 10:25:04;;;;;;;20.60;10.82;;;;;;;;;;5109653;28;20510;-65
2021/11/23 10:27:30;;;;;;;;;;;;;;;;;;5109987;28;20031;-67
2021/11/23 10:29:58;;;;;;;15.00;9.75;;;;;;;;;;5109875;28;20275;-65
2021/11/23 10:32:24;;;;;;;15.65;9.50;;;;;;;;;;5109496;28;20089;-66
2021/11/23 10:34:50;;;;;;;17.77;11.68;;;;;;;;;;5116039;28;20023;-66
2021/11/23 10:37:30;;;;;;;16.92;10.93;;;;;;;;;;5130790;28;20544;-67
2021/11/23 10:40:09;;;;;;;20.50;12.68;;;;;;;;;;5129749;28;20023;-65
2021/11/23 10:42:35;;;;;;;15.77;10.50;;;;;;;;;;5131184;28;20510;-65
2021/11/23 10:45:07;;;;;;;14.48;9.77;;;;;;;;;;5129416;28;20024;-66
2021/11/23 10:47:37;;;;;;;18.88;10.25;;;;;;;;;;5129896;28;20031;-67
2021/11/23 10:50:05;;;;;;;20.65;12.18;;;;;;;;;;5130656;27;20058;-66
2021/11/23 10:52:38;;;;;;;20.67;11.18;;;;;;;;;;5129686;28;20114;-66
2021/11/23 10:55:07;;;;;;;14.63;9.45;;;;;;;;;;5131056;27;20426;-65
2021/11/23 10:57:40;;;;;;;18.30;11.18;;;;;;;;;;5130329;28;20032;-65
2021/11/23 11:00:08;;;;;;;17.77;10.02;;;;;;;;;;5130485;28;20065;-65
2021/11/23 11:02:37;;;;;;;17.58;10.50;;;;;;;;;;5130705;27;20098;-65
2021/11/23 11:05:03;;;;;;;26.83;16.92;;;;;;;;;;5130145;27;20087;-66
2021/11/23 11:07:30;;;;;;;18.65;12.23;;;;;;;;;;5130328;28;20554;-65
2021/11/23 11:09:58;;;;;;;17.63;10.15;;;;;;;;;;5130438;27;20110;-66
2021/11/23 11:12:24;;;;;;;15.57;9.35;;;;;;;;;;5128769;28;20468;-66
2021/11/23 11:14:51;;;;;;;14.38;9.52;;;;;;;;;;5129747;28;20064;-66
2021/11/23 11:17:17;;;;;;;23.10;11.02;;;;;;;;;;5130194;28;20027;-64
2021/11/23 11:19:46;;;;;;;14.90;10.45;;;;;;;;;;5129951;28;20027;-65
2021/11/23 11:22:13;;;;;;;16.13;10.75;;;;;;;;;;5130273;27;20043;-65
2021/11/23 11:24:44;;;;;;;18.50;10.95;;;;;;;;;;5129499;27;20027;-66
2021/11/23 11:27:29;;;;;;;15.18;10.88;;;;;;;;;;5102619;27;20024;-65
2021/11/23 11:29:55;;;;;;;21.95;12.93;;;;;;;;;;5095247;28;20024;-66
2021/11/23 11:32:36;;;;;;;14.27;9.10;;;;;;;;;;5093435;28;20043;-66
2021/11/23 11:35:21;;;;;;;17.33;10.73;;;;;;;;;;5089095;28;20050;-65
2021/11/23 11:37:47;;;;;;;13.82;9.15;;;;;;;;;;5093913;28;20016;-64
2021/11/23 11:41:04;;;;;;;16.92;10.50;;;;;;;;;;5086575;27;20394;-65
2021/11/23 11:43:37;;;;;;;15.70;8.57;;;;;;;;;;5087540;28;20077;-65
2021/11/23 11:46:04;;;;;;;16.23;10.95;;;;;;;;;;5089575;28;20020;-63
2021/11/23 11:48:34;;;;;;;14.60;9.60;;;;;;;;;;5089709;28;20099;-65
2021/11/23 11:51:11;;;;;;;15.75;10.35;;;;;;;;;;5088241;28;20038;-65
2021/11/23 11:53:42;;;;;;;17.52;9.57;;;;;;;;;;5088592;28;20020;-65
2021/11/23 11:56:08;;;;;;;13.90;9.23;;;;;;;;;;5088005;28;20081;-65
2021/11/23 11:58:47;;;;;;;16.95;9.20;;;;;;;;;;5086274;28;20044;-65
2021/11/23 12:01:21;;;;;;;18.88;10.63;;;;;;;;;;5085857;28;20020;-65
2021/11/23 12:04:09;;;;;;;16.80;9.88;;;;;;;;;;5087444;28;20024;-65
2021/11/23 12:06:54;;;;;;;15.30;8.90;;;;;;;;;;5069541;28;20448;-65
2021/11/23 12:09:28;;;;;;;17.00;10.63;;;;;;;;;;5087365;28;20091;-65
2021/11/23 12:11:56;;;;;;;13.25;8.73;;;;;;;;;;5087818;28;20020;-65
2021/11/23 12:14:26;;;;;;;16.10;7.78;;;;;;;;;;5069178;28;20101;-66
2021/11/23 12:16:58;;;;;;;15.77;9.88;;;;;;;;;;5087173;28;20024;-65
2021/11/23 12:19:36;;;;;;;13.52;7.78;;;;;;;;;;5088677;28;20408;-64
2021/11/23 12:22:03;;;;;;;13.20;8.20;;;;;;;;;;5070191;28;20028;-65
2021/11/23 12:24:38;;;;;;;18.80;11.75;;;;;;;;;;5089447;28;20096;-65
2021/11/23 12:27:08;;;;;;;12.65;7.50;;;;;;;;;;5084878;28;20579;-64
2021/11/23 12:29:35;;;;;;;12.68;7.90;;;;;;;;;;5088493;28;20103;-64
2021/11/23 12:32:02;;;;;;;11.80;7.97;;;;;;;;;;5071297;28;20048;-66
2021/11/23 12:34:28;;;;;;;16.05;7.93;;;;;;;;;;5089066;28;20032;-64
2021/11/23 12:36:56;;;;;;;14.75;8.40;;;;;;;;;;5089277;28;20017;-64
2021/11/23 12:39:23;;;;;;;16.52;7.07;;;;;;;;;;5087087;28;20051;-64
2021/11/23 12:41:59;;;;;;;14.25;8.45;;;;;;;;;;5065405;28;20020;-63
2021/11/23 12:44:33;;;;;;;13.38;8.63;;;;;;;;;;5084568;28;20023;-63
2021/11/23 12:47:06;;;;;;;13.55;8.50;;;;;;;;;;5089140;28;20031;-64
2021/11/23 12:49:33;;;;;;;11.63;7.40;;;;;;;;;;5070115;28;20537;-64
2021/11/23 12:52:05;;;;;;;14.60;9.20;;;;;;;;;;5065266;28;20025;-62
2021/11/23 12:54:34;;;;;;;10.88;6.70;;;;;;;;;;5075648;28;20541;-63
2021/11/23 12:57:05;;;;;;;15.18;8.50;;;;;;;;;;5075558;28;20422;-63
2021/11/23 12:59:34;;;;;;;14.52;9.40;;;;;;;;;;5075622;28;20029;-67
2021/11/23 13:02:20;;;;;;;15.68;11.55;;;;;;;;;;5075594;28;20029;-65
2021/11/23 13:04:47;;;;;;;16.20;9.32;;;;;;;;;;5075163;28;20048;-62
2021/11/23 13:07:13;;;;;;;12.25;6.85;;;;;;;;;;5074035;28;20469;-65
2021/11/23 13:09:57;;;;;;;12.75;8.07;;;;;;;;;;5075361;28;20028;-64
2021/11/23 13:12:25;;;;;;;13.27;8.52;;;;;;;;;;5072168;28;20093;-63
2021/11/23 13:14:58;;;;;;;19.05;8.90;;;;;;;;;;5073993;28;20028;-64
2021/11/23 13:17:44;;;;;;;13.20;8.93;;;;;;;;;;5075121;28;20519;-64
2021/11/23 13:20:12;;;;;;;11.40;6.97;;;;;;;;;;5073196;28;20399;-63
2021/11/23 13:22:43;;;;;;;11.45;7.50;;;;;;;;;;5069163;28;20112;-63
2021/11/23 13:25:10;;;;;;;11.10;7.15;;;;;;;;;;5074571;28;20479;-63
2021/11/23 13:27:36;;;;;;;10.45;6.78;;;;;;;;;;5071685;28;20100;-63
2021/11/23 13:30:22;;;;;;;15.68;7.03;;;;;;;;;;5074688;28;20035;-63
2021/11/23 13:32:50;;;;;;;12.70;7.25;;;;;;;;;;5074254;28;20020;-63
2021/11/23 13:35:17;;;;;;;13.35;7.13;;;;;;;;;;5075010;28;20388;-63
2021/11/23 13:37:43;;;;;;;11.05;6.10;;;;;;;;;;5073439;28;20094;-63
2021/11/23 13:40:19;;;;;;;9.85;6.43;;;;;;;;;;5072499;28;20075;-63
2021/11/23 13:42:46;;;;;;;12.40;7.40;;;;;;;;;;5074751;28;20070;-63
2021/11/23 13:45:19;;;;;;;13.90;7.80;;;;;;;;;;5054630;28;20392;-63
2021/11/23 13:47:46;;;;;;;13.95;7.00;;;;;;;;;;5072556;28;20477;-63
2021/11/23 13:50:14;;;;;;;12.20;8.63;;;;;;;;;;5074361;28;20075;-63
2021/11/23 13:52:41;;;;;;;14.32;8.95;;;;;;;;;;5074226;28;20032;-63
2021/11/23 13:55:10;;;;;;;18.38;9.25;;;;;;;;;;5074108;28;20578;-63
2021/11/23 13:57:42;;;;;;;12.18;7.97;;;;;;;;;;5074220;28;20025;-63
2021/11/23 14:00:11;;;;;;;12.18;7.70;;;;;;;;;;5055726;28;20503;-63
2021/11/23 14:02:57;;;;;;;17.80;9.40;;;;;;;;;;5073160;28;20032;-63
2021/11/23 14:05:37;;;;;;;13.38;7.85;;;;;;;;;;5073485;28;20036;-63
2021/11/23 14:08:07;;;;;;;11.80;5.85;;;;;;;;;;5073341;28;20029;-64
2021/11/23 14:10:36;;;;;;;12.15;6.47;;;;;;;;;;5073668;28;20043;-64
2021/11/23 14:13:13;;;;;;;12.70;7.05;;;;;;;;;;5074185;28;20098;-63
2021/11/23 14:15:41;;;;;;;13.63;8.07;;;;;;;;;;5073811;28;20469;-63
2021/11/23 14:18:12;;;;;;;11.27;6.80;;;;;;;;;;5073793;28;20025;-64
2021/11/23 14:20:46;;;;;;;13.73;7.43;;;;;;;;;;5073908;28;20036;-63
2021/11/23 14:23:22;;;;;;;14.52;8.20;;;;;;;;;;5073432;28;20024;-63
2021/11/23 14:25:59;;;;;;;14.35;7.85;;;;;;;;;;5071250;28;20029;-64
2021/11/23 14:28:26;;;;;;;17.50;9.52;;;;;;;;;;5073258;28;20071;-63
2021/11/23 14:30:52;;;;;;;17.40;9.85;;;;;;;;;;5073829;28;20074;-65
2021/11/23 14:33:22;;;;;;;16.23;10.32;;;;;;;;;;5072933;28;20476;-65
2021/11/23 14:35:49;;;;;;;14.38;8.35;;;;;;;;;;5073386;28;20024;-65
2021/11/23 14:38:15;;;;;;;17.92;9.85;;;;;;;;;;5073547;28;20031;-63
2021/11/23 14:40:41;;;;;;;13.88;9.18;;;;;;;;;;5073231;28;20067;-63
2021/11/23 14:43:07;;;;;;;15.05;8.25;;;;;;;;;;5073217;28;20025;-64
2021/11/23 14:45:34;;;;;;;15.90;7.97;;;;;;;;;;5073803;28;20024;-63